TAF KDEN
AMD KDEN 080259Z 0803/0906 23007KT P6SM FEW220 FM080700 21008KT P6SM SCT250 FM081800 30008KT P6SM SCT120 BKN180 FM082100 33012KT P6SM SCT120 BKN180 FM090300 21010KT P6SM SCT120 BKN180=
METAR KDEN
WC KDEN
WS KDEN
WV KDEN